Time;durP1;ratioP1;P1;durP2;ratioP2;P2;SDS_P1;SDS_P2;PMS_P1;PMS_P2;Temp;Humidity;BMP_temperature;BMP_pressure;BME280_temperature;BME280_humidity;BME280_pressure;Samples;Min_cycle;Max_cycle;Signal;HPM_P1;HPM_P2
2022/08/28 00:00:27;;;;;;;4.85;2.38;;;20.70;99.30;;;;;;5121201;28;20020;-73
2022/08/28 00:02:54;;;;;;;3.70;2.25;;;20.70;99.40;;;;;;5121208;28;20034;-73
2022/08/28 00:05:22;;;;;;;3.15;2.38;;;20.60;99.60;;;;;;5119873;28;20061;-73
2022/08/28 00:07:48;;;;;;;4.00;2.50;;;20.60;99.80;;;;;;5121255;28;20062;-73
2022/08/28 00:10:16;;;;;;;3.65;2.40;;;20.50;99.70;;;;;;5118992;28;20016;-73
2022/08/28 00:12:43;;;;;;;3.90;2.53;;;20.50;99.90;;;;;;5119887;28;20121;-73
2022/08/28 00:15:12;;;;;;;2.95;2.38;;;20.40;99.90;;;;;;5120639;28;20023;-73
2022/08/28 00:17:38;;;;;;;3.30;2.40;;;20.30;99.90;;;;;;5119187;28;20050;-72
2022/08/28 00:20:09;;;;;;;7.85;3.03;;;20.30;99.90;;;;;;5120876;28;20019;-73
2022/08/28 00:22:37;;;;;;;4.00;2.92;;;20.20;99.90;;;;;;5110391;28;20022;-73
2022/08/28 00:25:05;;;;;;;3.65;3.00;;;20.20;99.90;;;;;;5120142;28;20035;-72
2022/08/28 00:27:52;;;;;;;3.78;2.40;;;20.20;99.90;;;;;;5120571;28;20107;-73
2022/08/28 00:30:28;;;;;;;3.67;2.58;;;20.20;99.90;;;;;;5119925;28;20027;-73
2022/08/28 00:32:58;;;;;;;4.13;3.00;;;20.10;99.90;;;;;;5114040;28;20080;-73
2022/08/28 00:35:24;;;;;;;5.07;2.38;;;20.00;99.90;;;;;;5119306;28;20059;-73
2022/08/28 00:37:53;;;;;;;4.90;2.70;;;19.90;99.90;;;;;;5119371;28;20100;-73
2022/08/28 00:40:21;;;;;;;5.90;3.00;;;19.80;99.90;;;;;;5120399;28;20020;-73
2022/08/28 00:42:48;;;;;;;3.95;2.45;;;19.80;99.90;;;;;;5119022;28;20024;-73
2022/08/28 00:45:16;;;;;;;2.90;2.40;;;19.80;99.90;;;;;;5120408;28;20111;-73
2022/08/28 00:47:42;;;;;;;4.65;2.38;;;19.70;99.90;;;;;;5120092;28;20023;-73
2022/08/28 00:50:10;;;;;;;3.28;2.50;;;19.60;99.90;;;;;;5120416;28;20061;-73
2022/08/28 00:52:37;;;;;;;6.18;2.90;;;19.60;99.90;;;;;;5117329;28;20434;-73
2022/08/28 00:55:12;;;;;;;3.28;2.80;;;19.60;99.90;;;;;;5114228;28;20023;-73
2022/08/28 00:57:49;;;;;;;4.22;2.72;;;19.60;99.90;;;;;;5116121;28;20136;-73
2022/08/28 01:00:32;;;;;;;6.32;2.92;;;19.50;99.90;;;;;;5110215;28;20057;-73
2022/08/28 01:02:58;;;;;;;6.15;2.42;;;19.50;99.90;;;;;;5130323;27;20031;-73
2022/08/28 01:05:24;;;;;;;3.47;2.83;;;19.50;99.90;;;;;;5119624;28;20107;-73
2022/08/28 01:07:51;;;;;;;8.82;3.35;;;19.40;99.90;;;;;;5118587;28;20023;-73
2022/08/28 01:10:21;;;;;;;3.95;2.78;;;19.40;99.90;;;;;;5119380;28;20357;-73
2022/08/28 01:12:48;;;;;;;3.97;3.20;;;19.30;99.90;;;;;;5118686;28;20114;-72
2022/08/28 01:15:22;;;;;;;3.95;2.75;;;19.30;99.90;;;;;;5119693;28;20103;-73
2022/08/28 01:17:55;;;;;;;8.65;3.58;;;19.30;99.90;;;;;;5109061;28;20484;-73
2022/08/28 01:20:25;;;;;;;7.22;3.30;;;19.20;99.90;;;;;;5117604;28;20024;-73
2022/08/28 01:23:00;;;;;;;;;;;19.20;99.90;;;;;;5120291;28;20073;-72
2022/08/28 01:25:29;;;;;;;7.47;4.18;;;19.20;99.90;;;;;;5119275;28;20363;-73
2022/08/28 01:27:55;;;;;;;5.07;3.40;;;19.20;99.90;;;;;;5115422;28;20051;-73
2022/08/28 01:30:23;;;;;;;3.70;2.80;;;19.10;99.90;;;;;;5119028;28;20089;-70
2022/08/28 01:32:53;;;;;;;4.28;2.90;;;19.00;99.90;;;;;;5119546;28;20020;-70
2022/08/28 01:35:22;;;;;;;11.20;2.77;;;19.00;99.90;;;;;;5119760;28;20035;-70
2022/08/28 01:37:48;;;;;;;4.43;3.10;;;19.00;99.90;;;;;;5111298;28;20502;-70
2022/08/28 01:40:19;;;;;;;4.15;3.00;;;19.00;99.90;;;;;;5118758;28;20047;-72
2022/08/28 01:42:45;;;;;;;3.20;2.70;;;19.00;99.90;;;;;;5113083;28;20020;-70
2022/08/28 01:45:16;;;;;;;5.70;2.65;;;19.00;99.90;;;;;;5117851;28;20048;-70
2022/08/28 01:47:42;;;;;;;;;;;19.00;99.90;;;;;;5119432;28;20031;-70
2022/08/28 01:50:11;;;;;;;7.53;3.08;;;19.00;99.90;;;;;;5116084;28;19911;-70
2022/08/28 01:52:37;;;;;;;4.32;3.00;;;19.00;99.90;;;;;;5117549;28;20035;-70
2022/08/28 01:55:04;;;;;;;4.15;3.00;;;19.00;99.90;;;;;;5108619;28;20040;-70
2022/08/28 01:57:30;;;;;;;6.88;2.88;;;19.00;99.90;;;;;;5117246;28;20019;-70
2022/08/28 01:59:56;;;;;;;4.50;3.00;;;18.90;99.90;;;;;;5119256;28;20026;-70
2022/08/28 02:02:22;;;;;;;4.43;2.90;;;18.80;99.90;;;;;;5118185;28;20027;-71
2022/08/28 02:04:48;;;;;;;4.55;2.90;;;18.80;99.90;;;;;;5116475;28;20046;-71
2022/08/28 02:07:15;;;;;;;3.47;2.90;;;18.70;99.90;;;;;;5117234;28;20032;-70
2022/08/28 02:09:42;;;;;;;3.20;2.72;;;18.70;99.90;;;;;;5117378;28;20050;-71
2022/08/28 02:12:08;;;;;;;6.05;2.83;;;18.70;99.90;;;;;;5118318;28;20020;-70
2022/08/28 02:14:34;;;;;;;4.05;3.15;;;18.60;99.90;;;;;;5118596;28;20024;-71
2022/08/28 02:17:00;;;;;;;5.53;3.03;;;18.60;99.90;;;;;;5115024;28;20020;-70
2022/08/28 02:19:26;;;;;;;6.78;3.63;;;18.50;99.90;;;;;;5115423;28;20019;-70
2022/08/28 02:21:51;;;;;;;5.50;2.90;;;18.50;99.90;;;;;;5118461;28;20019;-70
2022/08/28 02:24:17;;;;;;;5.10;3.60;;;18.50;99.90;;;;;;5113122;28;20077;-71
2022/08/28 02:26:43;;;;;;;3.90;3.15;;;18.50;99.90;;;;;;5118308;28;20043;-70
2022/08/28 02:29:10;;;;;;;4.38;3.10;;;18.50;99.90;;;;;;5118473;28;20019;-71
2022/08/28 02:31:37;;;;;;;4.05;2.80;;;18.50;99.90;;;;;;5118018;28;20391;-71
2022/08/28 02:34:03;;;;;;;3.53;2.85;;;18.50;99.90;;;;;;5117989;28;20049;-71
2022/08/28 02:36:29;;;;;;;5.28;3.05;;;18.40;99.90;;;;;;5118081;28;20080;-71
2022/08/28 02:38:55;;;;;;;3.53;2.95;;;18.40;99.90;;;;;;5118207;28;20043;-70
2022/08/28 02:41:20;;;;;;;5.35;3.22;;;18.40;99.90;;;;;;5118137;28;20030;-71
2022/08/28 02:43:47;;;;;;;4.22;2.83;;;18.30;99.90;;;;;;5112813;28;20020;-71
2022/08/28 02:46:13;;;;;;;4.35;3.10;;;18.30;99.90;;;;;;5116642;28;20057;-70
2022/08/28 02:48:39;;;;;;;6.40;3.38;;;18.30;99.90;;;;;;5117896;28;20020;-71
2022/08/28 02:51:11;;;;;;;3.63;2.72;;;18.30;99.90;;;;;;5117939;28;20031;-71
2022/08/28 02:53:38;;;;;;;4.70;3.13;;;18.20;99.90;;;;;;5117322;28;20016;-71
2022/08/28 02:56:05;;;;;;;4.20;2.90;;;18.30;99.90;;;;;;5108244;28;20024;-70
2022/08/28 02:58:33;;;;;;;5.03;3.25;;;18.30;99.90;;;;;;5116368;28;20031;-71
2022/08/28 03:01:00;;;;;;;3.78;2.83;;;18.20;99.90;;;;;;5103934;28;20028;-71
2022/08/28 03:03:27;;;;;;;5.53;3.13;;;18.20;99.90;;;;;;5112290;28;20045;-70
2022/08/28 03:05:54;;;;;;;3.88;3.33;;;18.20;99.90;;;;;;5113648;28;20026;-70
2022/08/28 03:08:21;;;;;;;6.72;3.08;;;18.20;99.90;;;;;;5116570;28;20482;-71
2022/08/28 03:10:46;;;;;;;6.75;3.03;;;18.20;99.90;;;;;;5117490;28;20015;-71
2022/08/28 03:13:12;;;;;;;3.75;3.00;;;18.20;99.90;;;;;;5117674;28;20020;-70
2022/08/28 03:15:42;;;;;;;3.67;2.92;;;18.20;99.90;;;;;;5117522;28;20015;-71
2022/08/28 03:18:08;;;;;;;6.97;3.42;;;18.20;99.90;;;;;;5115634;28;20026;-70
2022/08/28 03:20:34;;;;;;;6.18;3.70;;;18.10;99.90;;;;;;5115848;28;20035;-71
2022/08/28 03:25:44;;;;;;;5.38;3.25;;;18.10;99.90;;;;;;5117449;28;20042;-70
2022/08/28 03:28:10;;;;;;;5.22;3.22;;;18.00;99.90;;;;;;5117409;28;20044;-70
2022/08/28 03:30:37;;;;;;;6.32;3.22;;;18.00;99.90;;;;;;5117608;28;20027;-70
2022/08/28 03:33:02;;;;;;;9.80;3.95;;;18.00;99.90;;;;;;5117212;28;20012;-71
2022/08/28 03:35:28;;;;;;;4.63;3.28;;;18.00;99.90;;;;;;5117574;28;20103;-71
2022/08/28 03:37:54;;;;;;;6.85;4.00;;;17.90;99.90;;;;;;5116020;28;20024;-71
2022/08/28 03:40:20;;;;;;;7.60;3.53;;;17.90;99.90;;;;;;5117331;28;20027;-71
2022/08/28 03:42:46;;;;;;;4.18;3.17;;;17.90;99.90;;;;;;5117362;28;20016;-71
2022/08/28 03:45:13;;;;;;;5.75;3.35;;;17.80;99.90;;;;;;5117407;28;20055;-70
2022/08/28 03:47:40;;;;;;;7.15;3.80;;;17.80;99.90;;;;;;5117384;28;20027;-71
2022/08/28 03:50:10;;;;;;;4.38;3.55;;;17.80;99.90;;;;;;5105252;28;20028;-70
2022/08/28 03:52:36;;;;;;;9.88;3.03;;;17.80;99.90;;;;;;5117481;28;20040;-71
2022/08/28 03:55:03;;;;;;;4.13;3.67;;;17.80;99.90;;;;;;5115669;28;20474;-71
2022/08/28 03:57:29;;;;;;;9.18;3.63;;;17.80;99.90;;;;;;5112510;28;20071;-70
2022/08/28 03:59:55;;;;;;;5.25;3.72;;;17.80;99.90;;;;;;5116068;28;21340;-70
2022/08/28 04:02:21;;;;;;;6.38;3.70;;;17.80;99.90;;;;;;5116940;28;20046;-71
2022/08/28 04:04:49;;;;;;;4.32;3.15;;;17.70;99.90;;;;;;5117224;28;20028;-71
2022/08/28 04:07:16;;;;;;;5.95;3.55;;;17.60;99.90;;;;;;5117153;28;20050;-70
2022/08/28 04:09:42;;;;;;;6.95;3.67;;;17.60;99.90;;;;;;5115471;28;20069;-71
2022/08/28 04:12:08;;;;;;;7.22;3.95;;;17.50;99.90;;;;;;5117041;28;20053;-70
2022/08/28 04:14:35;;;;;;;5.75;4.05;;;17.50;99.90;;;;;;5117224;28;20783;-70
2022/08/28 04:17:01;;;;;;;8.27;3.80;;;17.40;99.90;;;;;;5113084;28;20080;-70
2022/08/28 04:19:26;;;;;;;4.28;3.40;;;17.40;99.90;;;;;;5117040;28;20008;-70
2022/08/28 04:21:52;;;;;;;8.55;3.97;;;17.40;99.90;;;;;;5117207;28;20434;-70
2022/08/28 04:24:18;;;;;;;9.48;3.75;;;17.40;99.90;;;;;;5116313;28;20104;-71
2022/08/28 04:26:44;;;;;;;4.10;3.65;;;17.30;99.90;;;;;;5116778;28;20044;-70
2022/08/28 04:29:10;;;;;;;7.60;3.95;;;17.30;99.90;;;;;;5116883;28;20023;-71
2022/08/28 04:31:36;;;;;;;6.85;4.20;;;17.30;99.90;;;;;;5116753;28;20156;-70
2022/08/28 04:34:04;;;;;;;9.75;3.90;;;17.20;99.90;;;;;;5119824;28;20020;-70
2022/08/28 04:36:32;;;;;;;4.30;3.85;;;17.20;99.90;;;;;;5116542;28;20115;-71
2022/08/28 04:38:58;;;;;;;6.20;3.83;;;17.20;99.90;;;;;;5120454;28;20047;-71
2022/08/28 04:41:24;;;;;;;4.30;3.70;;;17.20;99.90;;;;;;5119109;28;20015;-71
2022/08/28 04:43:51;;;;;;;5.35;3.33;;;17.10;99.90;;;;;;5119159;28;20492;-71
2022/08/28 04:46:17;;;;;;;5.95;3.50;;;17.10;99.90;;;;;;5120207;28;20483;-71
2022/08/28 04:48:43;;;;;;;7.65;4.10;;;17.10;99.90;;;;;;5120562;28;20440;-71
2022/08/28 04:51:11;;;;;;;6.35;3.47;;;17.10;99.90;;;;;;5115443;28;20062;-71
2022/08/28 04:53:38;;;;;;;4.40;3.53;;;17.10;99.90;;;;;;5113819;28;20019;-71
2022/08/28 04:56:06;;;;;;;4.85;3.40;;;17.10;99.90;;;;;;5118841;28;20019;-71
2022/08/28 04:58:33;;;;;;;5.00;3.45;;;17.00;99.90;;;;;;5116540;28;20020;-71
2022/08/28 05:01:07;;;;;;;8.55;4.07;;;17.00;99.90;;;;;;5099645;28;20062;-71
2022/08/28 05:03:34;;;;;;;4.47;3.72;;;17.00;99.90;;;;;;5114737;28;20038;-71
2022/08/28 05:06:00;;;;;;;5.32;3.58;;;17.00;99.90;;;;;;5120318;28;20026;-71
2022/08/28 05:08:27;;;;;;;4.78;3.80;;;17.00;99.90;;;;;;5119703;28;20023;-71
2022/08/28 05:10:53;;;;;;;6.57;3.92;;;17.00;99.90;;;;;;5119774;28;20018;-72
2022/08/28 05:13:20;;;;;;;4.50;3.53;;;17.00;99.90;;;;;;5115910;28;20015;-71
2022/08/28 05:15:48;;;;;;;11.38;4.07;;;17.00;99.90;;;;;;5119794;27;20391;-71
2022/08/28 05:18:17;;;;;;;4.68;4.15;;;17.00;99.90;;;;;;5106736;28;20019;-71
2022/08/28 05:20:45;;;;;;;8.60;4.13;;;17.00;99.90;;;;;;5119907;27;20023;-71
2022/08/28 05:23:13;;;;;;;4.53;3.38;;;17.00;99.90;;;;;;5118068;28;20023;-71
2022/08/28 05:25:42;;;;;;;5.38;3.78;;;17.00;99.90;;;;;;5119355;28;20039;-71
2022/08/28 05:28:09;;;;;;;4.72;3.72;;;17.00;99.90;;;;;;5113304;28;20047;-71
2022/08/28 05:30:36;;;;;;;4.88;3.95;;;17.00;99.90;;;;;;5119659;28;20041;-71
2022/08/28 05:33:07;;;;;;;4.38;3.25;;;17.00;99.90;;;;;;5117891;28;20023;-71
2022/08/28 05:35:34;;;;;;;6.05;3.85;;;17.00;99.90;;;;;;5118119;28;20087;-71
2022/08/28 05:38:00;;;;;;;5.55;3.70;;;17.00;99.90;;;;;;5119389;28;20096;-71
2022/08/28 05:40:26;;;;;;;7.20;3.70;;;17.10;99.90;;;;;;5118050;28;20023;-71
2022/08/28 05:42:52;;;;;;;4.45;3.50;;;17.20;99.90;;;;;;5117831;28;20046;-71
2022/08/28 05:45:18;;;;;;;4.47;3.63;;;17.30;99.90;;;;;;5119073;28;20028;-71
2022/08/28 05:47:44;;;;;;;5.45;3.63;;;17.30;99.90;;;;;;5119216;28;20403;-71
2022/08/28 05:50:12;;;;;;;5.55;3.83;;;17.40;99.90;;;;;;5119070;28;20034;-71
2022/08/28 05:52:39;;;;;;;4.93;4.10;;;17.40;99.90;;;;;;5109923;28;20074;-71
2022/08/28 05:55:06;;;;;;;7.70;4.18;;;17.50;99.90;;;;;;5118756;28;20042;-71
2022/08/28 05:57:33;;;;;;;10.43;4.10;;;17.60;99.90;;;;;;5119078;28;20023;-71
2022/08/28 05:59:58;;;;;;;4.78;4.15;;;17.60;99.90;;;;;;5118856;28;20038;-71
2022/08/28 06:02:26;;;;;;;4.22;3.80;;;17.70;99.90;;;;;;5116379;28;20020;-71
2022/08/28 06:04:53;;;;;;;10.02;3.97;;;17.80;99.90;;;;;;5108360;28;20050;-71
2022/08/28 06:07:19;;;;;;;8.73;3.72;;;17.80;99.90;;;;;;5113543;28;20031;-71
2022/08/28 06:09:45;;;;;;;5.50;4.10;;;17.90;99.90;;;;;;5118603;28;20035;-71
2022/08/28 06:12:11;;;;;;;7.47;4.32;;;18.00;99.90;;;;;;5109453;28;20020;-71
2022/08/28 06:14:37;;;;;;;6.13;4.10;;;18.10;99.90;;;;;;5117302;28;20026;-71
2022/08/28 06:17:04;;;;;;;5.32;4.25;;;18.20;99.90;;;;;;5114413;28;20097;-71
2022/08/28 06:19:32;;;;;;;9.38;3.85;;;18.30;99.90;;;;;;5111276;28;20058;-71
2022/08/28 06:22:02;;;;;;;8.05;3.67;;;18.40;99.90;;;;;;5114723;28;20091;-71
2022/08/28 06:24:29;;;;;;;5.13;3.83;;;18.40;99.90;;;;;;5118119;28;20031;-71
2022/08/28 06:26:56;;;;;;;10.82;3.85;;;18.50;99.90;;;;;;5118168;28;20044;-71
2022/08/28 06:29:21;;;;;;;5.07;3.97;;;18.70;99.90;;;;;;5118434;28;20398;-71
2022/08/28 06:31:53;;;;;;;9.68;4.20;;;18.90;99.90;;;;;;5116734;28;20019;-71
2022/08/28 06:34:19;;;;;;;4.57;3.67;;;19.10;99.90;;;;;;5118423;28;20056;-71
2022/08/28 06:36:45;;;;;;;4.78;3.15;;;19.20;99.90;;;;;;5115881;28;20011;-71
2022/08/28 06:39:12;;;;;;;4.47;3.38;;;19.40;99.90;;;;;;5118079;28;20108;-71
2022/08/28 06:41:41;;;;;;;8.32;3.88;;;19.50;99.90;;;;;;5118058;28;20031;-71
2022/08/28 06:44:18;;;;;;;4.68;3.42;;;19.50;99.90;;;;;;5118177;28;20072;-71
2022/08/28 06:46:45;;;;;;;6.90;3.40;;;19.60;99.90;;;;;;5117922;28;20023;-71
2022/08/28 06:49:11;;;;;;;4.57;3.22;;;19.60;99.90;;;;;;5118053;28;20062;-71
2022/08/28 06:51:38;;;;;;;4.03;3.40;;;19.70;99.90;;;;;;5118133;28;20024;-71
2022/08/28 06:54:04;;;;;;;6.22;3.88;;;19.90;99.90;;;;;;5117599;28;20050;-71
2022/08/28 06:56:30;;;;;;;5.05;3.40;;;20.00;99.90;;;;;;5117545;28;20028;-71
2022/08/28 06:58:57;;;;;;;4.93;3.10;;;20.20;99.90;;;;;;5116558;28;20400;-71
2022/08/28 07:01:28;;;;;;;6.88;3.47;;;20.30;99.90;;;;;;5117938;28;20027;-71
2022/08/28 07:03:58;;;;;;;7.22;4.00;;;20.40;99.90;;;;;;5116414;28;20032;-71
2022/08/28 07:06:24;;;;;;;9.40;3.60;;;20.50;99.90;;;;;;5116378;28;20383;-72
2022/08/28 07:08:50;;;;;;;5.00;3.50;;;20.60;99.90;;;;;;5117363;28;20031;-72
2022/08/28 07:11:22;;;;;;;7.25;3.47;;;20.70;99.90;;;;;;5116334;28;20094;-72
2022/08/28 07:13:48;;;;;;;5.07;3.17;;;20.90;99.90;;;;;;5116322;28;20024;-71
2022/08/28 07:16:16;;;;;;;3.97;3.58;;;21.00;99.90;;;;;;5116147;28;20019;-71
2022/08/28 07:18:43;;;;;;;5.68;3.30;;;21.10;99.90;;;;;;5117594;28;20031;-71
2022/08/28 07:21:09;;;;;;;5.97;3.42;;;21.30;99.90;;;;;;5117419;28;20502;-71
2022/08/28 07:23:37;;;;;;;4.82;3.25;;;21.50;99.90;;;;;;5117407;28;20547;-71
2022/08/28 07:26:08;;;;;;;4.97;3.22;;;21.60;99.90;;;;;;5117358;28;20537;-71
2022/08/28 07:28:35;;;;;;;5.10;3.35;;;21.80;99.90;;;;;;5117527;28;20044;-71
2022/08/28 07:31:08;;;;;;;6.07;3.53;;;22.00;99.90;;;;;;5115936;28;20057;-71
2022/08/28 07:33:36;;;;;;;9.30;4.53;;;22.20;99.90;;;;;;5117407;28;20069;-71
2022/08/28 07:36:04;;;;;;;5.93;3.58;;;22.30;99.90;;;;;;5117465;28;20019;-71
2022/08/28 07:38:29;;;;;;;3.95;2.90;;;22.50;99.90;;;;;;5117311;28;20391;-72
2022/08/28 07:40:55;;;;;;;5.90;3.17;;;22.70;99.90;;;;;;5117688;28;20024;-71
2022/08/28 07:46:10;;;;;;;7.07;3.45;;;23.00;99.90;;;;;;5112901;28;20093;-71
2022/08/28 07:48:37;;;;;;;5.93;3.70;;;23.30;99.90;;;;;;5117518;28;20024;-71
2022/08/28 07:51:04;;;;;;;4.03;3.15;;;23.60;99.90;;;;;;5117151;28;20031;-71
2022/08/28 07:53:29;;;;;;;5.15;3.03;;;23.70;99.90;;;;;;5115874;28;20102;-71
2022/08/28 07:55:55;;;;;;;9.18;2.83;;;23.90;99.90;;;;;;5117267;28;20052;-71
2022/08/28 07:58:24;;;;;;;5.68;3.05;;;24.10;99.90;;;;;;5117169;28;20387;-71
2022/08/28 08:00:52;;;;;;;6.68;2.88;;;24.20;99.90;;;;;;5117114;28;20088;-71
2022/08/28 08:03:18;;;;;;;6.85;2.72;;;24.40;99.90;;;;;;5116988;28;20035;-71
2022/08/28 08:05:56;;;;;;;7.57;2.97;;;24.50;99.90;;;;;;5105700;28;20710;-71
2022/08/28 08:08:22;;;;;;;5.50;2.70;;;24.60;99.90;;;;;;5120452;28;20020;-71
2022/08/28 08:11:04;;;;;;;5.75;2.33;;;24.80;99.90;;;;;;5118172;28;20469;-71
2022/08/28 08:13:31;;;;;;;4.25;2.50;;;25.00;99.90;;;;;;5114178;28;20022;-71
2022/08/28 08:16:10;;;;;;;4.25;2.97;;;25.10;99.90;;;;;;5120954;27;20029;-71
2022/08/28 08:18:38;;;;;;;4.78;2.53;;;25.30;99.90;;;;;;5119607;28;20102;-71
2022/08/28 08:21:05;;;;;;;16.70;3.17;;;25.50;99.90;;;;;;5120788;28;20030;-71
2022/08/28 08:23:36;;;;;;;4.18;3.10;;;25.50;99.90;;;;;;5120569;28;20016;-71
2022/08/28 08:26:05;;;;;;;5.10;2.40;;;25.70;99.90;;;;;;5120783;28;20091;-71
2022/08/28 08:28:33;;;;;;;3.35;2.28;;;25.80;99.90;;;;;;5120578;28;20073;-71
2022/08/28 08:31:22;;;;;;;3.70;2.60;;;25.90;99.90;;;;;;5120478;28;20028;-71
2022/08/28 08:33:54;;;;;;;9.90;3.20;;;25.90;99.90;;;;;;5119419;28;20016;-71
2022/08/28 08:36:22;;;;;;;4.78;2.47;;;26.10;99.90;;;;;;5119195;28;20073;-71
2022/08/28 08:38:48;;;;;;;4.22;2.58;;;26.20;99.90;;;;;;5118628;28;20115;-71
2022/08/28 08:41:24;;;;;;;4.18;2.70;;;26.30;99.90;;;;;;5120425;28;20051;-71
2022/08/28 08:44:00;;;;;;;6.43;2.85;;;26.40;99.90;;;;;;5116789;28;20054;-72
2022/08/28 08:46:33;;;;;;;6.93;2.65;;;26.40;99.90;;;;;;5120170;28;20076;-71
2022/08/28 08:49:08;;;;;;;4.30;2.80;;;26.50;99.90;;;;;;5120473;28;20023;-72
2022/08/28 08:51:46;;;;;;;7.10;2.65;;;26.50;99.90;;;;;;5120278;28;20030;-71
2022/08/28 08:54:17;;;;;;;3.60;2.67;;;26.60;99.90;;;;;;5111866;28;20176;-72
2022/08/28 08:56:45;;;;;;;5.82;2.33;;;26.70;99.90;;;;;;5118757;28;20075;-72
2022/08/28 08:59:21;;;;;;;6.43;2.55;;;26.80;99.90;;;;;;5109808;28;20016;-71
2022/08/28 09:02:00;;;;;;;5.28;2.13;;;26.80;99.90;;;;;;5118663;28;20053;-72
2022/08/28 09:04:45;;;;;;;4.05;2.80;;;26.90;99.90;;;;;;5120437;28;20023;-71
2022/08/28 09:07:46;;;;;;;3.83;2.25;;;27.20;99.90;;;;;;5119994;28;20472;-72
2022/08/28 09:10:14;;;;;;;4.88;2.42;;;27.30;99.90;;;;;;5119515;28;20020;-72
2022/08/28 09:12:56;;;;;;;5.38;2.55;;;27.40;99.90;;;;;;5110286;28;20019;-72
2022/08/28 09:15:34;;;;;;;6.35;2.28;;;27.40;99.90;;;;;;5119981;28;20020;-71
2022/08/28 09:18:19;;;;;;;3.65;2.50;;;27.60;98.80;;;;;;5111585;28;20094;-72
2022/08/28 09:20:50;;;;;;;4.95;1.92;;;27.60;98.00;;;;;;5118404;28;20057;-72
2022/08/28 09:23:16;;;;;;;4.38;2.33;;;27.70;98.10;;;;;;5119404;28;20024;-72
2022/08/28 09:25:47;;;;;;;6.57;2.33;;;27.80;96.80;;;;;;5118325;28;20391;-72
2022/08/28 09:28:21;;;;;;;4.57;2.40;;;27.80;98.00;;;;;;5115405;28;20129;-72
2022/08/28 09:31:04;;;;;;;4.97;2.17;;;27.80;97.70;;;;;;5119706;28;20026;-72
2022/08/28 09:33:47;;;;;;;3.85;1.98;;;28.00;97.00;;;;;;5118938;28;20053;-72
2022/08/28 09:36:22;;;;;;;6.32;2.38;;;28.10;93.90;;;;;;5118258;28;20430;-72
2022/08/28 09:39:08;;;;;;;4.45;2.30;;;28.10;94.60;;;;;;5117283;28;20537;-72
2022/08/28 09:44:30;;;;;;;5.45;2.10;;;28.30;94.20;;;;;;5119441;28;20054;-72
2022/08/28 09:46:56;;;;;;;5.13;2.15;;;28.20;93.70;;;;;;5108242;28;20016;-72
2022/08/28 09:49:29;;;;;;;3.55;2.00;;;28.30;92.80;;;;;;5119182;28;20050;-73
2022/08/28 09:52:00;;;;;;;2.25;1.65;;;28.50;92.30;;;;;;5117635;28;20027;-72
2022/08/28 09:54:35;;;;;;;4.72;2.13;;;28.50;92.40;;;;;;5117458;28;20031;-72
2022/08/28 09:57:02;;;;;;;2.33;1.90;;;28.40;91.10;;;;;;5117601;28;20026;-72
2022/08/28 09:59:29;;;;;;;5.38;2.28;;;28.40;91.20;;;;;;5118962;28;20106;-72
2022/08/28 10:02:16;;;;;;;2.83;1.95;;;28.40;90.10;;;;;;5117501;28;20106;-72
2022/08/28 10:04:58;;;;;;;5.55;2.00;;;28.40;90.20;;;;;;5117637;28;20032;-72
2022/08/28 10:07:45;;;;;;;4.15;2.40;;;28.50;91.20;;;;;;5115370;28;20022;-72
2022/08/28 10:10:26;;;;;;;4.00;2.20;;;28.60;90.20;;;;;;5118198;28;20034;-71
2022/08/28 10:13:16;;;;;;;3.05;1.83;;;28.50;89.00;;;;;;5108606;28;20061;-71
2022/08/28 10:16:20;;;;;;;3.78;1.70;;;28.60;90.20;;;;;;5117236;28;20107;-72
2022/08/28 10:18:49;;;;;;;2.47;1.70;;;28.70;90.20;;;;;;5112504;28;20068;-72
2022/08/28 10:21:40;;;;;;;3.50;2.13;;;28.80;90.90;;;;;;5118423;28;20020;-72
2022/08/28 10:24:28;;;;;;;3.35;1.90;;;28.80;88.50;;;;;;5117483;28;20468;-72
2022/08/28 10:27:15;;;;;;;3.72;1.90;;;28.80;90.30;;;;;;5115165;28;20055;-72
2022/08/28 10:29:57;;;;;;;4.03;2.30;;;28.80;89.40;;;;;;5117755;28;20024;-72
2022/08/28 10:32:51;;;;;;;5.03;2.00;;;29.00;87.70;;;;;;5118116;28;20364;-72
2022/08/28 10:35:54;;;;;;;4.43;1.80;;;29.00;89.70;;;;;;5106520;28;20384;-73
2022/08/28 10:38:37;;;;;;;4.63;2.17;;;29.00;84.40;;;;;;5117913;28;20012;-72
2022/08/28 10:41:13;;;;;;;4.18;2.13;;;29.00;83.90;;;;;;5118232;28;20027;-72
2022/08/28 10:43:51;;;;;;;3.15;2.22;;;29.00;84.60;;;;;;5105841;28;20034;-72
2022/08/28 10:46:39;;;;;;;3.08;2.00;;;29.10;86.00;;;;;;5117902;28;20037;-73
2022/08/28 10:49:27;;;;;;;3.03;1.73;;;29.10;86.80;;;;;;5118108;28;20020;-72
2022/08/28 10:52:02;;;;;;;3.05;2.00;;;29.20;85.70;;;;;;5116576;28;20023;-72
2022/08/28 10:54:53;;;;;;;5.13;1.85;;;29.20;85.10;;;;;;5117825;28;20027;-72
2022/08/28 10:57:39;;;;;;;4.32;1.65;;;29.20;86.60;;;;;;5113564;28;20023;-72
2022/08/28 11:00:20;;;;;;;4.13;1.75;;;29.30;82.90;;;;;;5109961;28;20020;-72
2022/08/28 11:02:51;;;;;;;3.70;2.03;;;29.30;82.30;;;;;;5113725;28;20019;-72
2022/08/28 11:05:22;;;;;;;5.00;1.92;;;29.20;84.50;;;;;;5116136;28;20032;-72
2022/08/28 11:08:11;;;;;;;1.98;1.45;;;29.30;79.80;;;;;;5117492;28;20020;-72
2022/08/28 11:10:37;;;;;;;6.57;2.08;;;29.30;79.60;;;;;;5115631;28;20027;-72
2022/08/28 11:13:08;;;;;;;5.80;1.73;;;29.40;80.30;;;;;;5108344;28;20034;-72
2022/08/28 11:15:35;;;;;;;3.83;1.65;;;29.50;78.80;;;;;;5116548;28;20022;-72
2022/08/28 11:18:12;;;;;;;3.22;1.90;;;29.60;78.90;;;;;;5113840;28;20024;-72
2022/08/28 11:20:53;;;;;;;3.10;1.95;;;29.70;80.70;;;;;;5115994;28;20023;-72
2022/08/28 11:23:42;;;;;;;3.42;1.65;;;29.70;81.50;;;;;;5110159;28;20028;-72
2022/08/28 11:26:11;;;;;;;2.35;1.60;;;29.90;80.20;;;;;;5109147;28;20068;-72
2022/08/28 11:28:46;;;;;;;6.82;1.65;;;30.00;77.20;;;;;;5108010;28;20040;-73
2022/08/28 11:31:11;;;;;;;3.15;1.55;;;30.00;73.60;;;;;;5112609;28;20024;-73
2022/08/28 11:33:41;;;;;;;3.83;1.73;;;30.10;72.30;;;;;;5117365;28;20016;-72
2022/08/28 11:36:20;;;;;;;3.13;1.67;;;30.00;71.10;;;;;;5116078;28;20035;-72
2022/08/28 11:38:52;;;;;;;3.42;1.52;;;29.90;71.80;;;;;;5117440;28;20031;-72
2022/08/28 11:41:26;;;;;;;2.80;1.63;;;30.00;70.90;;;;;;5116281;28;20024;-72
2022/08/28 11:44:11;;;;;;;3.78;1.80;;;30.10;67.90;;;;;;5121854;28;20499;-72
2022/08/28 11:46:40;;;;;;;3.78;1.90;;;30.10;68.50;;;;;;5121429;28;20024;-72
2022/08/28 11:49:25;;;;;;;4.30;1.50;;;30.20;67.50;;;;;;5121950;28;20039;-72
2022/08/28 11:52:18;;;;;;;2.15;1.70;;;30.20;67.20;;;;;;5110589;28;20278;-72
2022/08/28 11:55:05;;;;;;;4.82;1.45;;;30.30;70.40;;;;;;5121194;28;20020;-72
2022/08/28 11:57:59;;;;;;;3.35;1.83;;;30.30;66.90;;;;;;5121381;28;20369;-73
2022/08/28 12:00:51;;;;;;;6.43;1.80;;;30.40;67.40;;;;;;5116031;28;20079;-72
2022/08/28 12:03:30;;;;;;;3.67;2.05;;;30.40;66.80;;;;;;5119696;28;20028;-72
2022/08/28 12:05:58;;;;;;;3.13;1.80;;;30.50;67.80;;;;;;5106725;28;20031;-73
2022/08/28 12:08:51;;;;;;;2.58;1.80;;;30.60;66.80;;;;;;5120779;28;20023;-72
2022/08/28 12:11:39;;;;;;;6.03;2.10;;;30.70;66.30;;;;;;5119872;28;20104;-72
2022/08/28 12:14:08;;;;;;;2.13;1.52;;;30.70;65.70;;;;;;5108403;28;20050;-72
2022/08/28 12:17:13;;;;;;;2.17;1.55;;;30.70;64.40;;;;;;5120949;28;20024;-72
2022/08/28 12:19:48;;;;;;;2.80;1.50;;;30.80;66.10;;;;;;5104051;28;20040;-72
2022/08/28 12:22:20;;;;;;;7.05;1.50;;;30.80;67.70;;;;;;5119482;28;20016;-72
2022/08/28 12:24:56;;;;;;;4.30;2.00;;;30.80;64.00;;;;;;5114655;28;20035;-73
2022/08/28 12:27:23;;;;;;;2.83;1.73;;;30.90;64.10;;;;;;5120534;28;20041;-72
2022/08/28 12:29:55;;;;;;;2.22;1.67;;;30.80;65.20;;;;;;5120648;28;20036;-72
2022/08/28 12:32:38;;;;;;;3.45;2.05;;;31.00;67.00;;;;;;5119214;28;20020;-72
2022/08/28 12:35:15;;;;;;;2.00;1.42;;;31.10;65.80;;;;;;5111094;28;20111;-73
2022/08/28 12:37:57;;;;;;;3.40;1.80;;;31.20;63.80;;;;;;5120366;28;20026;-73
2022/08/28 12:40:28;;;;;;;2.75;1.90;;;31.10;64.90;;;;;;5120850;28;20032;-72
2022/08/28 12:43:01;;;;;;;2.95;1.40;;;31.30;64.40;;;;;;5119035;28;20024;-72
2022/08/28 12:45:52;;;;;;;2.75;1.67;;;31.40;65.10;;;;;;5120697;28;20031;-73
2022/08/28 12:48:24;;;;;;;3.00;1.98;;;31.50;62.90;;;;;;5113172;27;20027;-72
2022/08/28 12:51:11;;;;;;;3.92;1.77;;;31.50;62.10;;;;;;5120240;28;20019;-73
2022/08/28 12:53:44;;;;;;;5.28;1.77;;;31.60;62.00;;;;;;5119306;28;20491;-73
2022/08/28 12:56:13;;;;;;;3.72;1.55;;;31.60;64.90;;;;;;5120172;28;20069;-72
2022/08/28 12:58:40;;;;;;;3.88;1.88;;;31.70;64.10;;;;;;5120408;28;20076;-72
2022/08/28 13:01:30;;;;;;;3.35;1.63;;;31.80;63.00;;;;;;5118758;28;20034;-72
2022/08/28 13:04:21;;;;;;;3.00;2.00;;;31.90;63.00;;;;;;5117481;28;20045;-72
2022/08/28 13:06:47;;;;;;;3.72;2.00;;;31.90;65.70;;;;;;5119908;28;20027;-72
2022/08/28 13:09:26;;;;;;;2.55;1.80;;;32.10;62.90;;;;;;5119917;28;20055;-72
2022/08/28 13:11:52;;;;;;;4.50;2.08;;;32.30;61.90;;;;;;5118465;28;20028;-72
2022/08/28 13:14:42;;;;;;;6.65;1.90;;;32.30;60.20;;;;;;5120226;28;20418;-72
2022/08/28 13:17:10;;;;;;;4.53;1.52;;;32.30;61.20;;;;;;5118371;28;20024;-72